Time;durP1;ratioP1;P1;durP2;ratioP2;P2;SDS_P1;SDS_P2;PMS_P1;PMS_P2;Temp;Humidity;BMP_temperature;BMP_pressure;BME280_temperature;BME280_humidity;BME280_pressure;Samples;Min_cycle;Max_cycle;Signal;HPM_P1;HPM_P2
2021/12/10 05:53:55;;;;;;;20.98;15.80;;;-0.20;99.90;;;;;;7425807;19;20421;-85
2021/12/10 06:08:00;;;;;;;17.58;13.43;;;0.00;99.90;;;;;;7421290;19;20332;-87
2021/12/10 10:58:13;;;;;;;17.90;12.90;;;2.80;99.90;;;;;;7402794;19;20328;-80
2021/12/10 11:04:00;;;;;;;17.70;13.60;;;2.90;99.90;;;;;;7286321;19;2004499;-79
2021/12/10 11:06:29;;;;;;;15.93;13.75;;;2.80;99.90;;;;;;7385230;19;20340;-79
2021/12/10 11:09:14;;;;;;;17.13;14.10;;;2.90;99.90;;;;;;7388165;19;20400;-79
2021/12/10 11:11:49;;;;;;;16.43;13.03;;;3.00;99.90;;;;;;7385267;19;20327;-80
2021/12/10 11:14:23;;;;;;;18.05;13.93;;;3.00;99.90;;;;;;7374205;19;20332;-79
2021/12/10 11:16:52;;;;;;;15.33;12.97;;;3.00;99.90;;;;;;7369582;19;20798;-79
2021/12/10 11:19:30;;;;;;;17.25;12.02;;;3.00;99.90;;;;;;7397482;19;20335;-79
2021/12/10 11:21:59;;;;;;;15.70;11.57;;;2.90;99.90;;;;;;7392663;19;20364;-80
2021/12/10 11:24:42;;;;;;;14.73;11.38;;;3.10;99.90;;;;;;7370669;19;20404;-80
2021/12/10 11:27:27;;;;;;;14.65;11.00;;;3.10;99.90;;;;;;7293419;19;2004459;-80
2021/12/10 11:30:02;;;;;;;13.25;10.02;;;3.00;99.90;;;;;;7355131;19;20349;-80
2021/12/10 11:33:03;;;;;;;11.52;10.00;;;3.00;99.90;;;;;;7386472;19;20439;-80
2021/12/10 11:35:42;;;;;;;14.17;10.47;;;3.10;99.90;;;;;;7290168;19;2004563;-81
2021/12/10 11:38:19;;;;;;;15.20;11.32;;;3.10;99.90;;;;;;7398131;19;20316;-79
2021/12/10 11:40:56;;;;;;;14.00;11.45;;;3.20;99.90;;;;;;7386298;19;20357;-81
2021/12/10 11:46:30;;;;;;;13.85;11.30;;;3.20;99.90;;;;;;7292849;19;2004642;-80
2021/12/10 11:48:57;;;;;;;14.90;11.50;;;3.20;99.90;;;;;;7370966;19;20673;-80
2021/12/10 11:51:45;;;;;;;14.68;11.52;;;3.10;99.90;;;;;;7372415;19;20313;-79
2021/12/10 11:54:25;;;;;;;12.82;10.57;;;3.10;99.90;;;;;;7351713;19;20344;-80
2021/12/10 11:57:02;;;;;;;15.23;9.70;;;3.00;99.90;;;;;;7390687;19;20313;-80
2021/12/10 11:59:31;;;;;;;12.75;11.07;;;3.00;99.90;;;;;;7393470;19;20345;-80
2021/12/10 12:02:17;;;;;;;13.27;10.98;;;3.10;99.90;;;;;;7395011;19;20345;-80
2021/12/10 12:04:58;;;;;;;13.70;9.93;;;3.00;99.90;;;;;;7391751;19;20356;-79
2021/12/10 12:07:47;;;;;;;18.00;10.73;;;3.00;99.90;;;;;;7293702;19;2004448;-79
2021/12/10 12:10:20;;;;;;;15.88;10.82;;;3.00;99.90;;;;;;7292689;19;2004607;-80
2021/12/10 12:12:49;;;;;;;14.85;10.65;;;3.10;99.90;;;;;;7394739;19;20882;-80
2021/12/10 12:15:31;;;;;;;12.38;9.55;;;3.00;99.90;;;;;;7364906;19;20321;-80
2021/12/10 12:18:02;;;;;;;14.13;9.25;;;3.00;99.90;;;;;;7296782;19;2004455;-80
2021/12/10 12:20:40;;;;;;;8.93;7.83;;;2.90;99.90;;;;;;7369282;19;20325;-79
2021/12/10 12:26:08;;;;;;;11.60;8.80;;;2.90;99.90;;;;;;7289858;19;2008175;-80
2021/12/10 12:28:36;;;;;;;11.13;9.20;;;2.90;99.90;;;;;;7379764;19;20365;-80
2021/12/10 12:31:07;;;;;;;14.20;9.43;;;2.90;99.90;;;;;;7373298;19;20364;-79
2021/12/10 12:33:57;;;;;;;11.00;8.45;;;2.80;99.90;;;;;;7394083;19;20324;-80
2021/12/10 12:36:42;;;;;;;7.80;6.72;;;2.80;99.90;;;;;;7289419;19;2004689;-80
2021/12/10 12:39:13;;;;;;;9.38;7.47;;;2.80;99.90;;;;;;7269287;19;2004555;-81
2021/12/10 12:41:44;;;;;;;8.75;7.85;;;2.80;99.90;;;;;;7364331;19;20320;-78
2021/12/10 12:44:10;;;;;;;9.73;8.00;;;2.70;99.90;;;;;;7392377;19;20796;-79
2021/12/10 12:46:54;;;;;;;8.55;6.53;;;2.80;99.90;;;;;;7390514;19;20374;-81
2021/12/10 12:49:20;;;;;;;11.88;7.57;;;3.00;99.90;;;;;;7391287;19;20333;-79
2021/12/10 12:52:10;;;;;;;8.27;6.60;;;2.80;99.90;;;;;;7390445;19;20441;-79
2021/12/10 12:54:41;;;;;;;7.13;6.38;;;2.70;99.90;;;;;;7391259;19;20305;-79
2021/12/10 12:57:08;;;;;;;10.35;8.25;;;2.70;99.90;;;;;;7370047;19;20328;-79
2021/12/10 12:59:34;;;;;;;10.23;7.68;;;2.60;99.90;;;;;;7391316;19;20665;-81
2021/12/10 13:02:04;;;;;;;11.50;7.72;;;2.70;99.90;;;;;;7393155;19;20297;-79
2021/12/10 13:04:40;;;;;;;10.75;8.63;;;2.70;99.90;;;;;;7392472;19;20396;-79
2021/12/10 13:07:19;;;;;;;11.27;7.78;;;2.60;99.90;;;;;;7391883;19;20352;-79
2021/12/10 13:09:56;;;;;;;8.60;6.77;;;2.60;99.90;;;;;;7393908;19;20304;-79
2021/12/10 13:12:43;;;;;;;9.43;7.93;;;2.50;99.90;;;;;;7397460;19;20329;-79
2021/12/10 13:15:20;;;;;;;10.55;8.02;;;2.50;99.90;;;;;;7292048;19;2004422;-79
2021/12/10 13:17:57;;;;;;;8.93;6.77;;;2.50;99.90;;;;;;7295726;19;2004448;-79
2021/12/10 13:20:29;;;;;;;8.27;6.43;;;2.50;99.90;;;;;;7371729;19;20318;-79
2021/12/10 13:23:00;;;;;;;6.65;6.05;;;2.60;99.90;;;;;;7399255;19;20337;-80
2021/12/10 13:25:29;;;;;;;8.68;7.75;;;2.60;99.90;;;;;;7401340;19;20354;-80
2021/12/10 13:27:57;;;;;;;8.35;6.18;;;2.50;99.90;;;;;;7282073;19;20349;-80
2021/12/10 13:30:29;;;;;;;7.78;5.68;;;2.40;99.90;;;;;;7251973;19;20357;-80
2021/12/10 13:32:57;;;;;;;7.78;5.70;;;2.40;99.90;;;;;;7313813;19;20328;-79
2021/12/10 13:35:25;;;;;;;6.93;6.20;;;2.40;99.90;;;;;;7399605;19;20349;-79
2021/12/10 13:37:52;;;;;;;5.72;5.03;;;2.40;99.90;;;;;;7402949;19;20434;-80
2021/12/10 13:40:21;;;;;;;6.07;5.25;;;2.40;99.90;;;;;;7385875;19;20372;-79
2021/12/10 13:42:51;;;;;;;8.77;6.10;;;2.50;99.90;;;;;;7408784;19;20662;-81
2021/12/10 13:45:25;;;;;;;6.87;5.60;;;2.40;99.90;;;;;;7381419;19;20329;-80
2021/12/10 13:48:01;;;;;;;7.40;6.40;;;2.50;99.90;;;;;;7398595;19;20934;-79
2021/12/10 13:50:57;;;;;;;7.15;6.45;;;2.40;99.90;;;;;;7304216;19;2004452;-79
2021/12/10 14:00:10;;;;;;;6.27;4.57;;;2.40;99.90;;;;;;7421423;19;20344;-78
2021/12/10 14:03:32;;;;;;;5.77;5.13;;;2.40;99.90;;;;;;7423653;19;20359;-79
2021/12/10 17:44:03;;;;;;;6.90;5.55;;;0.30;99.90;;;;;;7380606;19;20854;-79
2021/12/10 17:46:33;;;;;;;6.57;5.57;;;0.30;99.90;;;;;;7389548;19;20324;-79
2021/12/10 17:49:03;;;;;;;6.47;5.80;;;0.20;99.90;;;;;;7387479;19;20349;-79
2021/12/10 17:51:31;;;;;;;5.95;5.35;;;0.20;99.90;;;;;;7388398;19;20325;-78
2021/12/10 17:54:05;;;;;;;7.10;5.90;;;0.10;99.90;;;;;;7373531;19;20316;-79
2021/12/10 17:56:31;;;;;;;6.05;5.55;;;0.20;99.90;;;;;;7392144;19;20340;-78
2021/12/10 17:58:57;;;;;;;6.68;5.38;;;0.10;99.90;;;;;;7368037;19;20329;-79
2021/12/10 18:01:32;;;;;;;7.05;5.55;;;0.00;99.90;;;;;;7392103;19;20384;-79
2021/12/10 18:03:58;;;;;;;7.35;6.15;;;0.00;99.90;;;;;;7388458;19;20297;-79
2021/12/10 18:06:39;;;;;;;6.50;5.72;;;0.00;99.90;;;;;;7394107;19;20356;-80
2021/12/10 18:09:13;;;;;;;6.90;6.13;;;0.00;99.90;;;;;;7393070;19;20866;-78
2021/12/10 18:11:41;;;;;;;7.45;6.47;;;0.00;99.90;;;;;;7393900;19;20320;-79
2021/12/10 18:14:07;;;;;;;7.38;5.97;;;-0.10;99.90;;;;;;7394386;19;20329;-79
2021/12/10 18:16:33;;;;;;;8.60;6.40;;;-0.10;99.90;;;;;;7398203;19;20317;-81
2021/12/10 18:18:59;;;;;;;7.53;6.63;;;-0.10;99.90;;;;;;7394659;19;20361;-79
2021/12/10 18:21:33;;;;;;;16.17;13.63;;;-0.20;99.90;;;;;;7397763;19;20332;-80
2021/12/10 18:24:02;;;;;;;14.13;11.43;;;-0.10;99.90;;;;;;7292445;19;2004413;-80
2021/12/10 18:26:32;;;;;;;10.43;8.55;;;-0.20;99.90;;;;;;7373545;19;20420;-80
2021/12/10 18:29:29;;;;;;;11.13;7.72;;;-0.40;99.90;;;;;;7390084;19;20361;-76
2021/12/10 18:32:01;;;;;;;7.03;6.32;;;-0.40;99.90;;;;;;7287325;19;2005458;-82
2021/12/10 18:34:29;;;;;;;12.32;8.30;;;-0.50;99.90;;;;;;7394822;19;20373;-79
2021/12/10 18:36:56;;;;;;;9.60;7.78;;;-0.50;99.90;;;;;;7394747;19;20470;-81
2021/12/10 18:39:36;;;;;;;10.03;7.43;;;-0.50;99.90;;;;;;7391139;19;20321;-79
2021/12/10 18:42:16;;;;;;;7.75;7.03;;;-0.50;99.90;;;;;;7393941;19;20343;-79
2021/12/10 18:44:47;;;;;;;10.98;8.43;;;-0.50;99.90;;;;;;7391878;19;20332;-79
2021/12/10 18:47:13;;;;;;;10.05;7.90;;;-0.40;99.90;;;;;;7389735;19;20332;-79
2021/12/10 18:49:41;;;;;;;9.60;7.32;;;-0.40;99.90;;;;;;7396908;19;20348;-79
2021/12/10 18:52:11;;;;;;;8.33;6.67;;;-0.30;99.90;;;;;;7391385;19;20958;-82
2021/12/10 18:54:47;;;;;;;11.38;8.20;;;-0.30;99.90;;;;;;7370213;19;20341;-79
2021/12/10 18:57:17;;;;;;;8.60;7.70;;;-0.30;99.90;;;;;;7389880;19;20319;-79
2021/12/10 18:59:54;;;;;;;8.95;7.53;;;-0.30;99.90;;;;;;7391944;19;20351;-82
2021/12/10 19:02:24;;;;;;;10.73;7.97;;;-0.30;99.90;;;;;;7392627;19;20347;-79
2021/12/10 19:04:56;;;;;;;11.90;7.97;;;-0.20;99.90;;;;;;7392711;19;20316;-84
2021/12/10 19:07:27;;;;;;;10.27;7.80;;;-0.30;99.90;;;;;;7371693;19;20314;-77
2021/12/10 19:09:57;;;;;;;8.93;7.32;;;-0.30;99.90;;;;;;7387607;19;20337;-79
2021/12/10 19:12:37;;;;;;;8.73;6.97;;;-0.30;99.90;;;;;;7386386;19;20308;-81
2021/12/10 19:15:13;;;;;;;8.23;7.40;;;-0.30;99.90;;;;;;7388177;19;20362;-78
2021/12/10 19:17:43;;;;;;;11.93;7.60;;;-0.40;99.90;;;;;;7392582;19;20373;-81
2021/12/10 19:20:11;;;;;;;11.57;8.47;;;-0.30;99.90;;;;;;7389112;19;20400;-79
2021/12/10 19:22:38;;;;;;;9.95;7.95;;;-0.40;99.90;;;;;;7389208;19;20337;-80
2021/12/10 19:25:34;;;;;;;9.40;6.70;;;-0.50;99.90;;;;;;7397088;19;20325;-80
2021/12/10 19:28:03;;;;;;;9.98;7.65;;;-0.50;99.90;;;;;;7291875;19;2004260;-80
2021/12/10 19:30:55;;;;;;;10.88;8.40;;;-0.40;99.90;;;;;;7390896;19;20344;-79
2021/12/10 19:33:27;;;;;;;11.15;8.93;;;-0.50;99.90;;;;;;7288487;19;2004286;-79
2021/12/10 19:35:57;;;;;;;9.68;8.50;;;-0.60;99.90;;;;;;7393196;19;20851;-80
2021/12/10 19:38:28;;;;;;;11.02;8.45;;;-0.80;99.90;;;;;;7389883;19;20843;-80
2021/12/10 19:41:19;;;;;;;8.82;7.65;;;-0.70;99.90;;;;;;7389180;19;20415;-79
2021/12/10 19:44:03;;;;;;;9.65;7.97;;;-0.70;99.90;;;;;;7288819;19;2004346;-78
2021/12/10 19:46:36;;;;;;;9.25;7.57;;;-0.60;99.90;;;;;;7289614;19;2006505;-83
2021/12/10 19:49:08;;;;;;;8.85;7.22;;;-0.70;99.90;;;;;;7396536;19;20331;-80
2021/12/10 19:51:52;;;;;;;10.43;7.90;;;-0.60;99.90;;;;;;7395379;19;20320;-79
2021/12/10 19:54:27;;;;;;;10.20;8.88;;;-0.70;99.90;;;;;;7291938;19;2005621;-80
2021/12/10 19:57:18;;;;;;;10.85;9.23;;;-0.50;99.90;;;;;;7291665;19;2009770;-81
2021/12/10 19:59:47;;;;;;;14.32;9.40;;;-0.70;99.90;;;;;;7283258;19;2004230;-79
2021/12/10 20:02:45;;;;;;;10.82;7.95;;;-0.80;99.90;;;;;;7385896;19;20315;-80
2021/12/10 20:05:18;;;;;;;9.73;7.30;;;-0.70;99.90;;;;;;7186509;19;2004502;-80
2021/12/10 20:07:47;;;;;;;11.02;8.60;;;-0.70;99.90;;;;;;7390341;19;20320;-81
2021/12/10 20:10:21;;;;;;;8.38;6.97;;;-0.60;99.90;;;;;;7377974;19;20341;-81
2021/12/10 20:12:56;;;;;;;12.00;7.35;;;-0.70;99.90;;;;;;7388390;19;20848;-80
2021/12/10 20:15:38;;;;;;;10.07;7.90;;;-0.60;99.90;;;;;;7367128;19;20728;-80
2021/12/10 20:18:08;;;;;;;7.93;6.60;;;-0.70;99.90;;;;;;7383128;19;20317;-80
2021/12/10 20:21:03;;;;;;;8.88;7.10;;;-0.70;99.90;;;;;;7389797;19;20345;-79
2021/12/10 20:23:37;;;;;;;8.60;7.07;;;-0.80;99.90;;;;;;7284742;19;2004187;-79
2021/12/10 20:26:13;;;;;;;8.30;7.38;;;-0.70;99.90;;;;;;7367736;19;20336;-81
2021/12/10 20:28:41;;;;;;;8.18;6.95;;;-0.80;99.90;;;;;;7382304;19;20357;-80
2021/12/10 20:31:29;;;;;;;9.23;7.13;;;-1.00;99.90;;;;;;7387601;19;20355;-80
2021/12/10 20:34:20;;;;;;;9.67;7.23;;;-1.10;99.90;;;;;;7386118;19;20867;-81
2021/12/10 20:36:50;;;;;;;9.15;6.60;;;-1.10;99.90;;;;;;7287658;19;2004426;-78
2021/12/10 20:39:34;;;;;;;8.77;6.80;;;-1.10;99.90;;;;;;7391720;19;20340;-80
2021/12/10 20:42:34;;;;;;;13.02;7.53;;;-1.10;99.90;;;;;;7268082;19;2004486;-79
2021/12/10 20:45:30;;;;;;;11.05;7.25;;;-1.20;99.90;;;;;;7284631;19;2004459;-79
2021/12/10 20:48:00;;;;;;;11.07;8.03;;;-1.20;99.90;;;;;;7229400;19;2008403;-80
2021/12/10 20:50:45;;;;;;;9.55;7.45;;;-1.20;99.90;;;;;;7373879;19;20369;-80
2021/12/10 20:53:40;;;;;;;9.05;6.68;;;-1.30;99.90;;;;;;7264606;19;2004397;-80
2021/12/10 20:56:11;;;;;;;8.60;7.40;;;-1.30;99.90;;;;;;7385257;19;20695;-80
2021/12/10 20:59:07;;;;;;;8.20;6.90;;;-1.30;99.90;;;;;;7377586;19;20340;-80
2021/12/10 21:02:06;;;;;;;11.70;8.35;;;-1.30;99.90;;;;;;7284690;19;2004342;-82
2021/12/10 21:05:23;;;;;;;8.60;6.82;;;-1.30;99.90;;;;;;7365736;19;20315;-80
2021/12/10 21:08:27;;;;;;;9.18;7.85;;;-1.40;99.90;;;;;;7070343;19;2004779;-80
2021/12/10 21:11:08;;;;;;;7.20;6.50;;;-1.40;99.90;;;;;;7353583;19;20809;-79
2021/12/10 21:17:50;;;;;;;9.25;7.03;;;-1.40;99.90;;;;;;7336860;19;20619;-79
2021/12/10 21:21:08;;;;;;;8.98;6.68;;;-1.40;99.90;;;;;;7326461;19;20710;-79
2021/12/10 21:28:24;;;;;;;8.90;7.40;;;-1.50;99.90;;;;;;7200214;19;2004450;-79
2021/12/10 21:31:49;;;;;;;7.60;6.80;;;-1.50;99.90;;;;;;7255041;19;20873;-81
2021/12/10 21:34:54;;;;;;;11.50;7.55;;;-1.50;99.90;;;;;;7267780;19;2004448;-80
2021/12/10 21:40:19;;;;;;;8.43;6.60;;;-1.60;99.90;;;;;;7315052;19;20305;-80
2021/12/10 21:43:15;;;;;;;7.53;6.53;;;-1.60;99.90;;;;;;7310770;19;20320;-80
2021/12/10 21:49:55;;;;;;;8.20;6.22;;;-1.60;99.90;;;;;;7335878;19;20336;-80
2021/12/10 21:53:13;;;;;;;9.23;6.50;;;-1.60;99.90;;;;;;7237120;19;2004425;-79
2021/12/10 21:56:26;;;;;;;8.55;6.82;;;-1.60;99.90;;;;;;7187288;19;2004340;-79
2021/12/10 22:03:14;;;;;;;8.63;6.47;;;-1.70;99.90;;;;;;7218859;19;20403;-79
2021/12/10 22:06:51;;;;;;;8.45;6.65;;;-1.80;99.90;;;;;;7139037;19;2004438;-79
2021/12/10 22:10:49;;;;;;;10.43;7.10;;;-1.80;99.90;;;;;;7173682;19;2004416;-82
2021/12/10 22:13:58;;;;;;;13.00;6.75;;;-1.90;99.90;;;;;;7308599;19;20840;-79
2021/12/10 22:17:18;;;;;;;8.23;6.65;;;-2.00;99.90;;;;;;7337778;19;20403;-78
2021/12/10 22:21:04;;;;;;;7.78;6.22;;;-2.10;99.90;;;;;;7331321;19;20378;-78
2021/12/10 22:24:12;;;;;;;9.95;7.20;;;-2.10;99.90;;;;;;7139061;19;2004412;-80
2021/12/10 22:27:39;;;;;;;8.25;6.22;;;-2.10;99.90;;;;;;7322518;19;20476;-79
2021/12/10 22:31:19;;;;;;;7.97;6.55;;;-2.00;99.90;;;;;;7308579;19;20418;-79
2021/12/10 22:35:16;;;;;;;7.60;6.78;;;-2.10;99.90;;;;;;7158494;19;2004600;-79
2021/12/10 22:38:17;;;;;;;8.47;7.50;;;-2.30;99.90;;;;;;7293229;19;2005319;-78
2021/12/10 22:41:33;;;;;;;8.77;6.22;;;-2.30;99.90;;;;;;7295183;19;2004353;-79
2021/12/10 22:45:33;;;;;;;9.67;7.50;;;-2.40;99.90;;;;;;7145212;19;2004448;-79
2021/12/10 22:49:04;;;;;;;7.38;6.38;;;-2.50;99.90;;;;;;7270973;19;20336;-79
2021/12/10 22:52:55;;;;;;;8.10;6.35;;;-2.40;99.90;;;;;;7391204;19;20657;-79
2021/12/10 22:56:29;;;;;;;8.80;6.22;;;-2.40;99.90;;;;;;7292047;19;2004692;-79
2021/12/10 22:59:36;;;;;;;7.35;6.22;;;-2.60;99.90;;;;;;7120201;19;2004334;-79
2021/12/10 23:02:38;;;;;;;7.97;7.13;;;-2.60;99.90;;;;;;7393050;19;20352;-79
2021/12/10 23:05:40;;;;;;;9.55;7.40;;;-2.60;99.90;;;;;;7205323;19;2004256;-78
2021/12/10 23:11:43;;;;;;;8.83;6.80;;;-2.70;99.90;;;;;;7232167;19;2004449;-79
2021/12/10 23:15:11;;;;;;;9.10;6.95;;;-2.70;99.90;;;;;;7183342;19;2004428;-79
2021/12/10 23:18:32;;;;;;;8.93;7.03;;;-2.80;99.90;;;;;;7199447;19;2004309;-78
2021/12/10 23:21:21;;;;;;;9.30;7.68;;;-2.70;99.90;;;;;;7335721;19;20377;-78
2021/12/10 23:24:06;;;;;;;8.77;6.75;;;-2.90;99.90;;;;;;7263141;19;2004460;-79
2021/12/10 23:26:40;;;;;;;8.48;7.57;;;-2.90;99.90;;;;;;7207106;19;2004438;-79
2021/12/10 23:29:28;;;;;;;7.28;6.53;;;-2.90;99.90;;;;;;7363251;19;20345;-79
2021/12/10 23:32:35;;;;;;;10.67;7.70;;;-2.90;99.90;;;;;;7327457;19;20336;-79
2021/12/10 23:35:19;;;;;;;10.02;7.13;;;-2.90;99.90;;;;;;7194324;19;2004246;-78
2021/12/10 23:38:10;;;;;;;9.23;6.60;;;-2.90;99.90;;;;;;7292551;19;20345;-79
2021/12/10 23:40:49;;;;;;;10.13;6.20;;;-2.80;99.90;;;;;;7373218;19;20370;-79
2021/12/10 23:43:39;;;;;;;9.70;6.80;;;-2.80;99.90;;;;;;7370432;19;20292;-79
2021/12/10 23:46:17;;;;;;;8.43;6.55;;;-2.90;99.90;;;;;;7270217;19;2005831;-80
2021/12/10 23:49:00;;;;;;;7.82;6.18;;;-2.80;99.90;;;;;;7324914;19;20320;-80
2021/12/10 23:52:09;;;;;;;7.25;6.45;;;-2.90;99.90;;;;;;7351982;19;20332;-79
2021/12/10 23:55:12;;;;;;;8.50;6.75;;;-2.80;99.90;;;;;;7371452;19;20301;-79
2021/12/10 23:57:45;;;;;;;8.75;6.18;;;-2.90;99.90;;;;;;7349123;19;20358;-79
